createdAt,value
2023-01-09T00:00:00.105Z,983.12
2023-01-09T00:05:00.103Z,983.07
2023-01-09T00:10:00.112Z,983.08
2023-01-09T00:15:00.237Z,983.04
2023-01-09T00:20:00.152Z,982.99
2023-01-09T00:25:00.098Z,982.89
2023-01-09T00:30:00.108Z,982.86
2023-01-09T00:35:00.136Z,982.89
2023-01-09T00:40:00.105Z,982.74
2023-01-09T00:45:00.118Z,982.6
2023-01-09T00:50:00.122Z,982.45
2023-01-09T00:55:00.105Z,982.35
2023-01-09T01:00:00.170Z,982.19
2023-01-09T01:05:00.113Z,982.15
2023-01-09T01:10:00.111Z,981.96
2023-01-09T01:15:00.222Z,981.93
2023-01-09T01:20:00.089Z,981.97
2023-01-09T01:25:00.100Z,981.94
2023-01-09T01:30:00.122Z,981.98
2023-01-09T01:35:00.139Z,981.99
2023-01-09T01:40:00.117Z,981.99
2023-01-09T01:45:00.090Z,982.01
2023-01-09T01:50:00.097Z,981.91
2023-01-09T01:55:00.137Z,981.74
2023-01-09T02:00:00.156Z,981.6
2023-01-09T02:05:00.082Z,981.63
2023-01-09T02:10:00.125Z,981.51
2023-01-09T02:15:00.161Z,981.51
2023-01-09T02:20:00.163Z,981.44
2023-01-09T02:25:00.139Z,981.29
2023-01-09T02:30:00.165Z,981.33
2023-01-09T02:35:00.137Z,981.3
2023-01-09T02:40:00.151Z,981.34
2023-01-09T02:45:00.129Z,981.27
2023-01-09T02:50:00.185Z,981.17
2023-01-09T02:55:00.182Z,981.06
2023-01-09T03:00:00.167Z,981.15
2023-01-09T03:05:00.137Z,981.18
2023-01-09T03:10:00.105Z,981.14
2023-01-09T03:15:00.152Z,981.13
2023-01-09T03:20:00.122Z,981.13
2023-01-09T03:25:00.138Z,981.1
2023-01-09T03:30:00.160Z,981.1
2023-01-09T03:35:00.128Z,981.2
2023-01-09T03:40:00.158Z,981.13
2023-01-09T03:45:00.159Z,981.18
2023-01-09T03:50:00.150Z,981.08
2023-01-09T03:55:00.145Z,981.02
2023-01-09T04:00:00.156Z,980.85
2023-01-09T04:05:00.146Z,980.73
2023-01-09T04:10:00.122Z,980.69
2023-01-09T04:15:00.128Z,980.67
2023-01-09T04:20:00.146Z,980.56
2023-01-09T04:25:00.126Z,980.64
2023-01-09T04:30:00.142Z,979.95
2023-01-09T04:35:00.164Z,979.97
2023-01-09T04:40:00.124Z,979.85
2023-01-09T04:45:00.143Z,979.72
2023-01-09T04:50:00.122Z,979.73
2023-01-09T04:55:00.141Z,979.57
2023-01-09T05:00:00.123Z,979.6
2023-01-09T05:05:00.116Z,979.57
2023-01-09T05:10:00.135Z,979.38
2023-01-09T05:15:00.138Z,979.38
2023-01-09T05:20:00.116Z,979.45
2023-01-09T05:25:00.584Z,979.3
2023-01-09T05:30:00.131Z,979.36
2023-01-09T05:35:00.116Z,979.32
2023-01-09T05:40:00.121Z,979.32
2023-01-09T05:45:00.116Z,979.3
2023-01-09T05:50:00.124Z,979.31
2023-01-09T05:55:00.131Z,979.34
2023-01-09T06:00:00.166Z,979.3
2023-01-09T06:05:00.198Z,979.29
2023-01-09T06:10:00.123Z,979.38
2023-01-09T06:15:00.128Z,979.48
2023-01-09T06:20:00.140Z,979.54
2023-01-09T06:25:00.127Z,979.56
2023-01-09T06:30:00.135Z,979.53
2023-01-09T06:35:00.145Z,979.48
2023-01-09T06:40:00.140Z,979.51
2023-01-09T06:45:00.113Z,979.45
2023-01-09T06:50:00.115Z,979.51
2023-01-09T06:55:00.158Z,979.47
2023-01-09T07:00:00.182Z,979.45
2023-01-09T07:05:00.118Z,979.67
2023-01-09T07:10:00.124Z,979.72
2023-01-09T07:15:00.162Z,979.68
2023-01-09T07:20:00.102Z,979.86
2023-01-09T07:25:00.137Z,979.85
2023-01-09T07:30:00.132Z,979.93
2023-01-09T07:35:00.165Z,979.92
2023-01-09T07:40:00.118Z,980.12
2023-01-09T07:45:00.120Z,980.32
2023-01-09T07:50:00.126Z,980.41
2023-01-09T07:55:00.132Z,980.52
2023-01-09T08:00:00.188Z,980.62
2023-01-09T08:05:00.137Z,980.55
2023-01-09T08:10:00.131Z,980.74
2023-01-09T08:15:00.148Z,980.74
2023-01-09T08:20:00.170Z,980.73
2023-01-09T08:25:00.297Z,980.91
2023-01-09T08:30:00.157Z,980.97
2023-01-09T08:35:00.303Z,981.03
2023-01-09T08:40:00.169Z,981.14
2023-01-09T08:45:00.317Z,981.21
2023-01-09T08:50:00.137Z,981.23
2023-01-09T08:55:00.142Z,981.32
2023-01-09T09:00:00.143Z,981.39
2023-01-09T09:05:00.137Z,981.41
2023-01-09T09:10:00.140Z,981.57
2023-01-09T09:15:00.140Z,981.71
2023-01-09T09:20:00.286Z,981.84
2023-01-09T09:25:00.110Z,981.82
2023-01-09T09:30:00.185Z,981.95
2023-01-09T09:35:00.148Z,981.84
2023-01-09T09:40:06.565Z,981.93
2023-01-09T09:45:00.130Z,982.06
2023-01-09T09:50:00.148Z,982.05
2023-01-09T09:55:00.141Z,982.08
2023-01-09T10:00:00.160Z,982.03
2023-01-09T10:05:00.131Z,982.02
2023-01-09T10:10:00.137Z,982.21
2023-01-09T10:15:00.149Z,982.31
2023-01-09T10:20:00.157Z,982.41
2023-01-09T10:25:00.110Z,982.52
2023-01-09T10:30:00.148Z,982.49
2023-01-09T10:35:00.163Z,982.53
2023-01-09T10:40:00.126Z,982.54
2023-01-09T10:45:00.130Z,982.6
2023-01-09T10:50:00.102Z,982.67
2023-01-09T10:55:00.131Z,982.61
2023-01-09T11:00:00.171Z,982.73
2023-01-09T11:05:00.137Z,982.61
2023-01-09T11:10:00.199Z,982.7
2023-01-09T11:15:00.165Z,982.57
2023-01-09T11:20:00.103Z,982.89
2023-01-09T11:25:00.112Z,982.95
2023-01-09T11:30:00.146Z,982.93
2023-01-09T11:35:00.138Z,982.93
2023-01-09T11:40:00.100Z,982.99
2023-01-09T11:45:00.128Z,982.94
2023-01-09T11:50:00.117Z,982.86
2023-01-09T11:55:00.143Z,982.82
2023-01-09T12:00:00.177Z,982.96
2023-01-09T12:05:00.141Z,982.93
2023-01-09T12:10:00.180Z,983.01
2023-01-09T12:15:00.190Z,982.94
2023-01-09T12:20:00.101Z,982.99
2023-01-09T12:25:00.304Z,982.82
2023-01-09T12:30:00.190Z,982.97
2023-01-09T12:35:00.156Z,983.03
2023-01-09T12:40:00.139Z,983.02
2023-01-09T12:45:00.290Z,982.92
2023-01-09T12:50:00.172Z,982.91
2023-01-09T12:55:00.133Z,982.96
2023-01-09T13:00:00.182Z,983
2023-01-09T13:05:00.168Z,983.02
2023-01-09T13:10:00.112Z,983.13
2023-01-09T13:15:00.182Z,983.2
2023-01-09T13:20:00.159Z,983.21
2023-01-09T13:25:00.176Z,983.24
2023-01-09T13:30:00.155Z,983.37
2023-01-09T13:35:00.145Z,983.44
2023-01-09T13:40:00.167Z,983.42
2023-01-09T13:45:00.098Z,983.41
2023-01-09T13:50:00.186Z,983.31
2023-01-09T13:55:00.259Z,983.34
2023-01-09T14:00:00.194Z,983.4
2023-01-09T14:05:00.302Z,983.55
2023-01-09T14:10:00.169Z,983.65
2023-01-09T14:15:00.180Z,983.8
2023-01-09T14:20:00.170Z,983.89
2023-01-09T14:25:00.116Z,984.04
2023-01-09T14:30:00.146Z,984.12
2023-01-09T14:35:00.220Z,984.35
2023-01-09T14:40:00.137Z,984.31
2023-01-09T14:45:00.125Z,984.4
2023-01-09T14:50:00.138Z,984.36
2023-01-09T14:55:00.128Z,984.36
2023-01-09T15:00:00.204Z,984.5
2023-01-09T15:05:00.124Z,984.59
2023-01-09T15:10:00.163Z,984.66
2023-01-09T15:15:00.157Z,984.7
2023-01-09T15:20:00.104Z,984.67
2023-01-09T15:25:00.136Z,984.63
2023-01-09T15:30:00.152Z,984.58
2023-01-09T15:35:00.157Z,984.67
2023-01-09T15:40:00.127Z,984.7
2023-01-09T15:45:00.160Z,984.73
2023-01-09T15:50:00.155Z,984.71
2023-01-09T15:55:00.144Z,984.76
2023-01-09T16:00:00.153Z,984.81
2023-01-09T16:05:00.140Z,984.88
2023-01-09T16:10:00.149Z,984.92
2023-01-09T16:15:00.135Z,984.88
2023-01-09T16:20:00.135Z,984.78
2023-01-09T16:25:00.171Z,984.92
2023-01-09T16:30:00.211Z,984.99
2023-01-09T16:35:01.461Z,985.01
2023-01-09T16:40:00.133Z,984.96
2023-01-09T16:45:00.111Z,984.89
2023-01-09T16:50:00.120Z,984.99
2023-01-09T16:55:00.130Z,984.9
2023-01-09T17:00:00.192Z,984.98
2023-01-09T17:05:00.119Z,985.12
2023-01-09T17:10:00.149Z,985.21
2023-01-09T17:15:00.157Z,985.22
2023-01-09T17:20:00.139Z,985.36
2023-01-09T17:25:00.121Z,985.42
2023-01-09T17:30:00.767Z,985.48
2023-01-09T17:35:00.170Z,985.5
2023-01-09T17:40:00.127Z,985.56
2023-01-09T17:45:00.118Z,985.67
2023-01-09T17:50:00.108Z,985.75
2023-01-09T17:55:00.201Z,985.91
2023-01-09T18:00:00.131Z,985.88
2023-01-09T18:05:00.147Z,985.93
2023-01-09T18:10:00.124Z,986.08
2023-01-09T18:15:00.246Z,986.09
2023-01-09T18:20:00.147Z,986.18
2023-01-09T18:25:00.100Z,986.16
2023-01-09T18:30:00.213Z,986.31
2023-01-09T18:35:00.141Z,986.33
2023-01-09T18:40:00.242Z,986.33
2023-01-09T18:45:00.200Z,986.33
2023-01-09T18:50:00.243Z,986.47
2023-01-09T18:55:00.144Z,986.4
2023-01-09T19:00:00.178Z,986.49
2023-01-09T19:05:00.181Z,986.46
2023-01-09T19:10:00.139Z,986.46
2023-01-09T19:15:00.155Z,986.46
2023-01-09T19:20:00.116Z,986.7
2023-01-09T19:25:00.113Z,986.76
2023-01-09T19:30:00.166Z,986.85
2023-01-09T19:35:00.201Z,986.93
2023-01-09T19:40:00.173Z,986.98
2023-01-09T19:45:00.177Z,986.96
2023-01-09T19:50:00.144Z,987.08
2023-01-09T19:55:00.130Z,987.11
2023-01-09T20:00:00.125Z,987.19
2023-01-09T20:05:00.126Z,987.18
2023-01-09T20:10:00.122Z,987.31
2023-01-09T20:15:00.142Z,987.28
2023-01-09T20:20:00.187Z,987.41
2023-01-09T20:25:00.157Z,987.6
2023-01-09T20:30:00.149Z,987.71
2023-01-09T20:35:00.149Z,987.82
2023-01-09T20:40:00.158Z,988.03
2023-01-09T20:45:00.121Z,988.03
2023-01-09T20:50:00.122Z,988.16
2023-01-09T20:55:00.220Z,988.1
2023-01-09T21:00:00.137Z,988.25
2023-01-09T21:05:00.112Z,988.32
2023-01-09T21:10:00.149Z,988.42
2023-01-09T21:15:00.140Z,988.51
2023-01-09T21:20:00.147Z,988.53
2023-01-09T21:25:00.142Z,988.6
2023-01-09T21:30:00.135Z,989.09
2023-01-09T21:35:00.125Z,989.25
2023-01-09T21:40:00.146Z,989.24
2023-01-09T21:45:00.113Z,989.33
2023-01-09T21:50:00.142Z,989.55
2023-01-09T21:55:00.147Z,989.68
2023-01-09T22:00:00.136Z,989.84
2023-01-09T22:05:00.188Z,989.97
2023-01-09T22:10:00.138Z,989.98
2023-01-09T22:15:00.152Z,990.1
2023-01-09T22:20:00.117Z,990.19
2023-01-09T22:25:00.109Z,990.3
2023-01-09T22:30:00.116Z,990.34
2023-01-09T22:35:00.125Z,990.39
2023-01-09T22:40:00.127Z,990.44
2023-01-09T22:45:00.115Z,990.53
2023-01-09T22:50:00.120Z,990.56
2023-01-09T22:55:00.121Z,990.74
2023-01-09T23:00:00.136Z,990.86
2023-01-09T23:05:00.124Z,990.93
2023-01-09T23:10:00.161Z,990.98
2023-01-09T23:15:00.138Z,991.04
2023-01-09T23:20:00.136Z,991.14
2023-01-09T23:25:00.114Z,991.17
2023-01-09T23:30:00.105Z,991.24
2023-01-09T23:35:00.121Z,991.47
2023-01-09T23:40:00.126Z,991.68
2023-01-09T23:45:00.157Z,991.68
2023-01-09T23:50:00.157Z,991.59
2023-01-09T23:55:00.126Z,991.77
